Weather at LAU Medical Center Rizk Hospital Helipad

Public forecast

Using degrees Celsius for public forecast. Weather courtesy of forecast.io.

Closest aviation weather report (METAR) to LAU Medical Center Rizk Hospital Helipad

Closest report is Beirut Rafic Hariri International Airport, 4.1 nm (7.6 km) SSW.

2024/05/28 01:00 (retrieved 1 hour ago)

OLBA 280100Z 18009KT 7000 SCT026 23/18 Q1013 NOSIG

Closest aviation forecast (TAF) to LAU Medical Center Rizk Hospital Helipad

Forecast is more than 6 hours old.

Closest forecast is Erbil International Airport, 438.4 nm (811.8 km) ENE.

2024/05/27 18:03 (retrieved 8 hours ago)

TAF ORER 271700Z 2718/2818 23004KT 8000 NSC BECMG 2720/2722 VRB02KT